Henning, Illinois
Current Conditions -  °F | °C
As of 11:35 AM on Wednesday 26 Nov 2014 (Local Time) from KDNV Reporting Station
Overcast Overcast  
Wind Chill: 20°   Ceiling: 1300
Heat Index: 27°   Visibility: 10mi
Dew Point: 22°   Wind: 7mph
Humidity: 82%   Direction: 100°E
Pressure: 30.08"   Gusts: NA
Location:  40.31°N, 87.7°W
Report Text: KDNV 261735Z AUTO 10006KT 10SM OVC013 M03/M05 A3008 RMK AO2 T10261053
Loading
Personal Weather Stations






























Interactive Weather Map New forecast layout! Learn more

10-Day Weather Forecast

Advertisements
Track Severe Weather on mobile